createdAt,value
2023-05-22T00:01:22.721Z,84.1
2023-05-22T00:03:03.060Z,84.75
2023-05-22T00:04:43.468Z,84.61
2023-05-22T00:06:23.758Z,84.84
2023-05-22T00:08:04.223Z,84.63
2023-05-22T00:09:44.608Z,84.25
2023-05-22T00:11:25.003Z,84.5
2023-05-22T00:13:05.532Z,85.47
2023-05-22T00:14:45.898Z,85.55
2023-05-22T00:16:26.291Z,85.44
2023-05-22T00:18:06.771Z,85.22
2023-05-22T00:19:47.079Z,85.5
2023-05-22T00:21:27.449Z,85.93
2023-05-22T00:23:07.768Z,85.99
2023-05-22T00:24:48.270Z,86.17
2023-05-22T00:26:28.701Z,87.32
2023-05-22T00:28:09.024Z,87.08
2023-05-22T00:29:49.462Z,87.17
2023-05-22T00:31:29.844Z,87.43
2023-05-22T00:33:10.237Z,87.24
2023-05-22T00:34:50.728Z,87.45
2023-05-22T00:36:31.104Z,87.86
2023-05-22T00:38:11.398Z,87.77
2023-05-22T00:39:51.771Z,88.08
2023-05-22T00:41:32.116Z,88.42
2023-05-22T00:43:12.640Z,87.99
2023-05-22T00:44:53.022Z,88.34
2023-05-22T00:46:33.545Z,88.52
2023-05-22T00:48:13.821Z,88.59
2023-05-22T00:49:54.161Z,88.81
2023-05-22T00:51:34.641Z,88.83
2023-05-22T00:53:15.015Z,89.58
2023-05-22T00:54:55.394Z,89.35
2023-05-22T00:56:35.976Z,89.17
2023-05-22T00:58:16.208Z,89.14
2023-05-22T00:59:56.623Z,89.03
2023-05-22T01:01:37.039Z,88.9
2023-05-22T01:03:17.566Z,89.39
2023-05-22T01:04:57.825Z,89.47
2023-05-22T01:06:38.350Z,89.63
2023-05-22T01:08:18.694Z,89.52
2023-05-22T01:09:59.134Z,90.32
2023-05-22T01:11:39.520Z,90.05
2023-05-22T01:13:19.964Z,89.9
2023-05-22T01:15:00.280Z,89.96
2023-05-22T01:16:40.721Z,90.31
2023-05-22T01:18:20.934Z,90.48
2023-05-22T01:20:01.583Z,90.62
2023-05-22T01:21:41.712Z,90.49
2023-05-22T01:23:22.109Z,90.43
2023-05-22T01:25:02.511Z,90.33
2023-05-22T01:26:42.872Z,90.3
2023-05-22T01:28:23.304Z,90.75
2023-05-22T01:30:03.742Z,90.99
2023-05-22T01:31:44.137Z,91.06
2023-05-22T01:33:24.847Z,90.84
2023-05-22T01:35:05.025Z,91.66
2023-05-22T01:36:45.364Z,92.26
2023-05-22T01:38:25.707Z,92.76
2023-05-22T01:40:06.221Z,92.66
2023-05-22T01:41:46.628Z,92.36
2023-05-22T01:43:27.026Z,92.09
2023-05-22T01:45:07.414Z,92.13
2023-05-22T01:46:47.760Z,92.19
2023-05-22T01:48:28.201Z,92.8
2023-05-22T01:50:08.695Z,92.41
2023-05-22T01:51:49.027Z,92.71
2023-05-22T01:53:29.481Z,93.17
2023-05-22T01:55:09.922Z,92.54
2023-05-22T01:56:50.402Z,92.38
2023-05-22T01:58:30.816Z,92.52
2023-05-22T02:00:11.274Z,92.37
2023-05-22T02:01:51.760Z,92.41
2023-05-22T02:03:32.258Z,92.56
2023-05-22T02:05:12.564Z,92.57
2023-05-22T02:06:53.007Z,92.46
2023-05-22T02:08:33.426Z,92.73
2023-05-22T02:10:13.812Z,92.72
2023-05-22T02:11:54.250Z,93.23
2023-05-22T02:13:34.697Z,93.34
2023-05-22T02:15:15.096Z,93.4
2023-05-22T02:16:55.595Z,93.37
2023-05-22T02:18:36.009Z,93.39
2023-05-22T02:20:16.313Z,93.54
2023-05-22T02:21:56.743Z,93.64
2023-05-22T02:23:36.945Z,93.39
2023-05-22T02:25:17.675Z,93.26
2023-05-22T02:26:57.532Z,93.39
2023-05-22T02:28:37.891Z,93.81
2023-05-22T02:30:18.323Z,94.34
2023-05-22T02:31:58.664Z,94.39
2023-05-22T02:33:39.026Z,94.5
2023-05-22T02:35:19.427Z,94.51
2023-05-22T02:36:59.858Z,94.63
2023-05-22T02:38:40.248Z,94.66
2023-05-22T02:40:20.717Z,94.68
2023-05-22T02:42:01.099Z,94.67
2023-05-22T02:43:41.570Z,94.56
2023-05-22T02:45:21.954Z,94.6
2023-05-22T02:47:02.455Z,94.8
2023-05-22T02:48:42.783Z,94.7
2023-05-22T02:50:23.249Z,94.76
2023-05-22T02:52:03.668Z,94.83
2023-05-22T02:53:44.089Z,94.96
2023-05-22T02:55:24.507Z,95.06
2023-05-22T02:57:05.019Z,95.13
2023-05-22T02:58:45.355Z,95.34
2023-05-22T03:00:25.688Z,95.44
2023-05-22T03:02:06.143Z,95.34
2023-05-22T03:03:46.629Z,95.58
2023-05-22T03:05:27.187Z,95.37
2023-05-22T03:07:07.373Z,95.48
2023-05-22T03:08:47.810Z,95.5
2023-05-22T03:10:28.151Z,95.43
2023-05-22T03:12:08.479Z,95.34
2023-05-22T03:13:49.021Z,95.51
2023-05-22T03:15:29.511Z,95.48
2023-05-22T03:17:09.835Z,95.64
2023-05-22T03:18:50.353Z,95.73
2023-05-22T03:20:30.770Z,95.75
2023-05-22T03:22:11.188Z,95.7
2023-05-22T03:23:51.545Z,95.72
2023-05-22T03:25:31.958Z,95.7
2023-05-22T03:27:12.396Z,95.8
2023-05-22T03:28:52.941Z,95.81
2023-05-22T03:30:33.187Z,95.94
2023-05-22T03:32:13.489Z,95.82
2023-05-22T03:33:54.064Z,95.84
2023-05-22T03:35:34.324Z,95.74
2023-05-22T03:37:14.647Z,95.7
2023-05-22T03:38:55.052Z,95.56
2023-05-22T03:40:35.481Z,95.57
2023-05-22T03:42:15.962Z,95.6
2023-05-22T03:43:56.398Z,95.6
2023-05-22T03:45:36.817Z,95.43
2023-05-22T03:47:17.170Z,95.45
2023-05-22T03:48:57.605Z,95.41
2023-05-22T03:50:38.380Z,95.57
2023-05-22T03:52:18.434Z,95.75
2023-05-22T03:53:58.873Z,95.78
2023-05-22T03:55:39.385Z,95.77
2023-05-22T03:57:19.824Z,95.62
2023-05-22T03:59:00.251Z,95.74
2023-05-22T04:00:40.737Z,95.73
2023-05-22T04:02:21.081Z,95.72
2023-05-22T04:04:01.324Z,95.7
2023-05-22T04:05:41.648Z,95.57
2023-05-22T04:07:21.941Z,95.49
2023-05-22T04:09:02.286Z,95.5
2023-05-22T04:10:42.767Z,95.49
2023-05-22T04:12:23.168Z,95.37
2023-05-22T04:14:03.723Z,95.62
2023-05-22T04:15:44.123Z,95.65
2023-05-22T04:17:24.568Z,95.54
2023-05-22T04:19:04.966Z,95.51
2023-05-22T04:20:45.420Z,95.85
2023-05-22T04:22:25.889Z,96.07
2023-05-22T04:24:06.344Z,96.1
2023-05-22T04:25:46.728Z,95.91
2023-05-22T04:27:27.138Z,95.75
2023-05-22T04:29:07.535Z,95.65
2023-05-22T04:30:47.924Z,95.52
2023-05-22T04:32:28.329Z,95.34
2023-05-22T04:34:08.620Z,95.25
2023-05-22T04:35:49.089Z,95.07
2023-05-22T04:37:29.457Z,94.99
2023-05-22T04:39:09.753Z,94.71
2023-05-22T04:40:50.119Z,94.45
2023-05-22T04:42:30.554Z,94.37
2023-05-22T04:44:11.023Z,94.25
2023-05-22T04:45:51.443Z,94.04
2023-05-22T04:47:32.076Z,93.97
2023-05-22T04:49:12.329Z,93.93
2023-05-22T04:50:52.796Z,93.85
2023-05-22T04:52:33.180Z,93.8
2023-05-22T04:54:13.627Z,93.57
2023-05-22T04:55:54.148Z,93.38
2023-05-22T04:57:34.588Z,93.25
2023-05-22T04:59:14.953Z,92.77
2023-05-22T05:00:55.453Z,92.55
2023-05-22T05:02:35.961Z,92.31
2023-05-22T05:04:16.383Z,92.07
2023-05-22T05:05:56.675Z,91.76
2023-05-22T05:07:37.025Z,91.86
2023-05-22T05:09:17.414Z,91.83
2023-05-22T05:10:57.813Z,91.49
2023-05-22T05:12:38.215Z,91.65
2023-05-22T05:14:18.683Z,91.33
2023-05-22T05:15:59.046Z,90.72
2023-05-22T05:17:39.525Z,90.27
2023-05-22T05:19:19.914Z,89.98
2023-05-22T05:21:00.386Z,89.94
2023-05-22T05:22:40.801Z,89.14
2023-05-22T05:24:21.326Z,88.95
2023-05-22T05:26:01.716Z,88.7
2023-05-22T05:27:42.136Z,88.52
2023-05-22T05:29:22.547Z,88.1
2023-05-22T05:31:02.947Z,87.76
2023-05-22T05:32:43.461Z,87.68
2023-05-22T05:34:23.772Z,87.74
2023-05-22T05:36:04.152Z,86.52
2023-05-22T05:37:44.510Z,86.43
2023-05-22T05:39:24.806Z,86.21
2023-05-22T05:41:05.295Z,87.19
2023-05-22T05:42:45.641Z,86.46
2023-05-22T05:44:26.140Z,85.61
2023-05-22T05:46:06.564Z,83.27
2023-05-22T05:47:46.955Z,80.97
2023-05-22T05:49:27.268Z,79.73
2023-05-22T05:51:07.707Z,78.71
2023-05-22T05:52:47.980Z,78.94
2023-05-22T05:54:28.390Z,76.19
2023-05-22T05:56:08.893Z,76.67
2023-05-22T05:57:49.263Z,75.49
2023-05-22T05:59:29.624Z,75.38
2023-05-22T06:01:10.099Z,74.39
2023-05-22T06:02:51.005Z,73.84
2023-05-22T06:04:30.939Z,73.82
2023-05-22T06:06:11.479Z,72.97
2023-05-22T06:07:51.872Z,72.66
2023-05-22T06:09:32.236Z,71.58
2023-05-22T06:11:12.700Z,72.14
2023-05-22T06:12:53.026Z,71.42
2023-05-22T06:14:33.438Z,70.56
2023-05-22T06:16:13.862Z,71.14
2023-05-22T06:17:54.331Z,69.54
2023-05-22T06:19:34.812Z,68.35
2023-05-22T06:21:15.111Z,69.09
2023-05-22T06:22:55.586Z,68.97
2023-05-22T06:24:36.061Z,68.55
2023-05-22T06:26:16.464Z,68.02
2023-05-22T06:27:56.858Z,66.21
2023-05-22T06:29:37.269Z,65.84
2023-05-22T06:31:17.659Z,66.03
2023-05-22T06:32:58.140Z,65.19
2023-05-22T06:34:38.493Z,64.75
2023-05-22T06:36:18.913Z,65.28
2023-05-22T06:37:59.330Z,63.64
2023-05-22T06:39:39.769Z,63.26
2023-05-22T06:41:20.269Z,63.46
2023-05-22T06:43:00.739Z,62.98
2023-05-22T06:44:41.130Z,64.65
2023-05-22T06:46:22.327Z,64.24
2023-05-22T06:48:02.071Z,61.95
2023-05-22T06:49:42.460Z,61.31
2023-05-22T06:51:22.850Z,61.54
2023-05-22T06:53:03.355Z,62.1
2023-05-22T06:54:43.651Z,60.93
2023-05-22T06:56:24.050Z,61.65
2023-05-22T06:58:04.520Z,60.18
2023-05-22T06:59:44.908Z,60.75
2023-05-22T07:01:25.333Z,60.03
2023-05-22T07:03:05.678Z,61.57
2023-05-22T07:04:46.046Z,60.28
2023-05-22T07:06:26.513Z,59.31
2023-05-22T07:08:06.919Z,60.35
2023-05-22T07:09:47.263Z,59.18
2023-05-22T07:11:27.719Z,58.95
2023-05-22T07:13:08.283Z,58.01
2023-05-22T07:14:48.822Z,56.98
2023-05-22T07:16:29.314Z,56.28
2023-05-22T07:18:09.655Z,56.79
2023-05-22T07:19:49.925Z,55.77
2023-05-22T07:21:30.332Z,56.17
2023-05-22T07:23:10.664Z,55.12
2023-05-22T07:24:51.143Z,55.85
2023-05-22T07:26:31.568Z,55.37
2023-05-22T07:28:12.017Z,55.35
2023-05-22T07:29:52.459Z,55.22
2023-05-22T07:31:32.880Z,54.96
2023-05-22T07:33:13.349Z,54.61
2023-05-22T07:34:53.712Z,54.77
2023-05-22T07:36:34.131Z,54.84
2023-05-22T07:38:14.600Z,53.97
2023-05-22T07:39:55.099Z,53.69
2023-05-22T07:41:35.586Z,54.17
2023-05-22T07:43:16.036Z,54.45
2023-05-22T07:44:56.483Z,54.37
2023-05-22T07:46:37.022Z,54.23
2023-05-22T07:48:17.431Z,54.45
2023-05-22T07:49:57.878Z,53.7
2023-05-22T07:51:38.368Z,53.31
2023-05-22T07:53:18.807Z,53.09
2023-05-22T07:54:59.301Z,52.33
2023-05-22T07:56:39.600Z,52.56
2023-05-22T07:58:20.047Z,51.45
2023-05-22T08:00:00.538Z,52.9
2023-05-22T08:01:40.761Z,52.35
2023-05-22T08:03:23.782Z,50.74
2023-05-22T08:05:01.708Z,51.59
2023-05-22T08:06:42.095Z,50.63
2023-05-22T08:08:22.464Z,49.74
2023-05-22T08:10:02.877Z,49.01
2023-05-22T08:11:43.283Z,50.35
2023-05-22T08:13:23.631Z,51.06
2023-05-22T08:15:04.056Z,50.58
2023-05-22T08:16:44.516Z,49.2
2023-05-22T08:18:24.849Z,50.32
2023-05-22T08:20:05.381Z,50.19
2023-05-22T08:21:45.719Z,49.59
2023-05-22T08:23:26.135Z,47.61
2023-05-22T08:25:06.578Z,48.89
2023-05-22T08:26:47.008Z,49.95
2023-05-22T08:28:27.355Z,47.76
2023-05-22T08:30:07.837Z,47.28
2023-05-22T08:31:48.265Z,48.38
2023-05-22T08:33:28.588Z,46.83
2023-05-22T08:35:08.974Z,47.9
2023-05-22T08:36:49.402Z,46.29
2023-05-22T08:38:29.942Z,48.87
2023-05-22T08:40:10.256Z,47.55
2023-05-22T08:41:50.684Z,47.54
2023-05-22T08:43:31.050Z,46.17
2023-05-22T08:45:11.398Z,49.94
2023-05-22T08:46:51.853Z,50.54
2023-05-22T08:48:32.229Z,49.94
2023-05-22T08:50:12.608Z,46.66
2023-05-22T08:51:52.954Z,47.61
2023-05-22T08:53:33.370Z,46.97
2023-05-22T08:55:13.818Z,45.64
2023-05-22T08:56:57.190Z,48.63
2023-05-22T08:58:34.734Z,46.75
2023-05-22T09:00:15.067Z,45.29
2023-05-22T09:01:55.506Z,44.84
2023-05-22T09:03:35.980Z,46.26
2023-05-22T09:05:16.658Z,45.02
2023-05-22T09:06:57.120Z,43.44
2023-05-22T09:08:37.522Z,44.51
2023-05-22T09:10:17.972Z,45.56
2023-05-22T09:11:58.345Z,45.23
2023-05-22T09:13:38.752Z,45.66
2023-05-22T09:15:19.223Z,43.4
2023-05-22T09:16:59.621Z,42.35
2023-05-22T09:18:40.002Z,43.08
2023-05-22T09:20:20.423Z,44.4
2023-05-22T09:22:00.815Z,44.53
2023-05-22T09:23:41.241Z,49.71
2023-05-22T09:25:21.713Z,44.01
2023-05-22T09:27:02.127Z,43.56
2023-05-22T09:28:42.476Z,47.21
2023-05-22T09:30:22.920Z,43.81
2023-05-22T09:32:03.264Z,43.6
2023-05-22T09:33:43.674Z,43.94
2023-05-22T09:35:24.058Z,42.35
2023-05-22T09:37:04.488Z,43.63
2023-05-22T09:38:44.840Z,44.35
2023-05-22T09:40:25.284Z,42.12
2023-05-22T09:42:05.669Z,42.95
2023-05-22T09:43:46.018Z,43.45
2023-05-22T09:45:26.439Z,45.91
2023-05-22T09:47:06.786Z,42.97
2023-05-22T09:48:47.279Z,43.42
2023-05-22T09:50:27.687Z,44.75
2023-05-22T09:52:08.006Z,44.82
2023-05-22T09:53:48.336Z,42.89
2023-05-22T09:55:28.769Z,44.43
2023-05-22T09:57:09.189Z,43.26
2023-05-22T09:58:49.592Z,42.96
2023-05-22T10:00:29.983Z,45.41
2023-05-22T10:02:10.453Z,44.14
2023-05-22T10:03:50.833Z,42.74
2023-05-22T10:05:31.218Z,43.76
2023-05-22T10:07:11.656Z,42.94
2023-05-22T10:08:52.001Z,44.16
2023-05-22T10:10:32.387Z,45.75
2023-05-22T10:12:12.834Z,45.72
2023-05-22T10:13:53.214Z,47.68
2023-05-22T10:15:33.630Z,44.23
2023-05-22T10:17:14.090Z,46.1
2023-05-22T10:18:54.579Z,45.34
2023-05-22T10:20:35.064Z,46.88
2023-05-22T10:22:15.478Z,46.36
2023-05-22T10:23:55.916Z,46.36
2023-05-22T10:25:36.287Z,46.22
2023-05-22T10:27:16.698Z,45.29
2023-05-22T10:28:57.103Z,45.54
2023-05-22T10:30:37.551Z,45.26
2023-05-22T10:32:17.936Z,44.2
2023-05-22T10:33:58.436Z,44.73
2023-05-22T10:35:38.762Z,43.07
2023-05-22T10:37:20.367Z,44.47
2023-05-22T10:38:59.674Z,43.94
2023-05-22T10:40:40.081Z,44.3
2023-05-22T10:42:20.553Z,40.9
2023-05-22T10:44:00.981Z,40.98
2023-05-22T10:45:42.533Z,42.39
2023-05-22T10:47:21.841Z,45.28
2023-05-22T10:49:02.300Z,41.21
2023-05-22T10:50:42.836Z,41.49
2023-05-22T10:52:23.144Z,41.03
2023-05-22T10:54:03.583Z,38.9
2023-05-22T10:55:43.963Z,41.51
2023-05-22T10:57:24.377Z,37.45
2023-05-22T10:59:04.776Z,41.64
2023-05-22T11:00:45.203Z,39.18
2023-05-22T11:02:25.841Z,37.07
2023-05-22T11:04:06.037Z,39.23
2023-05-22T11:05:46.491Z,38.78
2023-05-22T11:07:26.943Z,37.3
2023-05-22T11:09:07.421Z,40.05
2023-05-22T11:10:47.869Z,39.94
2023-05-22T11:12:28.248Z,38.33
2023-05-22T11:14:08.634Z,41.33
2023-05-22T11:15:49.056Z,40.9
2023-05-22T11:17:29.591Z,38.07
2023-05-22T11:19:22.803Z,39.69
2023-05-22T11:20:50.329Z,40.4
2023-05-22T11:22:30.793Z,39.24
2023-05-22T11:24:11.172Z,39.04
2023-05-22T11:25:51.650Z,39.74
2023-05-22T11:27:32.066Z,40.3
2023-05-22T11:29:12.425Z,39.92
2023-05-22T11:30:52.919Z,39.65
2023-05-22T11:32:33.346Z,40.93
2023-05-22T11:34:13.804Z,39.6
2023-05-22T11:35:54.148Z,40.79
2023-05-22T11:37:34.590Z,40.89
2023-05-22T11:39:14.983Z,41.21
2023-05-22T11:40:55.397Z,41.11
2023-05-22T11:42:35.839Z,42.04
2023-05-22T11:44:16.134Z,41.7
2023-05-22T11:45:56.652Z,41.97
2023-05-22T11:47:36.970Z,41.02
2023-05-22T11:49:17.391Z,41.26
2023-05-22T11:50:57.684Z,41.95
2023-05-22T11:52:38.127Z,42.24
2023-05-22T11:54:18.573Z,42.64
2023-05-22T11:55:58.975Z,41.94
2023-05-22T11:57:39.356Z,42.7
2023-05-22T11:59:19.854Z,41.45
2023-05-22T12:01:00.203Z,40.33
2023-05-22T12:02:40.630Z,40.51
2023-05-22T12:04:21.110Z,40.28
2023-05-22T12:06:01.477Z,40.95
2023-05-22T12:07:41.850Z,41.05
2023-05-22T12:09:22.261Z,40.64
2023-05-22T12:11:02.611Z,42.03
2023-05-22T12:12:43.010Z,42.69
2023-05-22T12:14:23.457Z,43.14
2023-05-22T12:16:04.083Z,41.98
2023-05-22T12:17:44.403Z,42.25
2023-05-22T12:19:24.840Z,41.67
2023-05-22T12:21:05.226Z,41.55
2023-05-22T12:22:45.668Z,42.75
2023-05-22T12:24:26.137Z,41.95
2023-05-22T12:26:06.517Z,42.37
2023-05-22T12:27:46.918Z,42.59
2023-05-22T12:29:27.312Z,40.81
2023-05-22T12:31:07.789Z,40.51
2023-05-22T12:32:48.366Z,38.8
2023-05-22T12:34:28.741Z,40.04
2023-05-22T12:36:09.322Z,38.29
2023-05-22T12:37:49.556Z,39.6
2023-05-22T12:39:29.974Z,36.91
2023-05-22T12:41:10.326Z,39.31
2023-05-22T12:42:50.702Z,37.96
2023-05-22T12:44:31.102Z,39.42
2023-05-22T12:46:11.528Z,37.2
2023-05-22T12:47:52.006Z,38.1
2023-05-22T12:49:32.411Z,43.11
2023-05-22T12:51:12.820Z,39.77
2023-05-22T12:52:53.260Z,37.52
2023-05-22T12:54:33.609Z,37.08
2023-05-22T12:56:14.051Z,36.26
2023-05-22T12:57:54.485Z,35.83
2023-05-22T12:59:34.917Z,37.87
2023-05-22T13:01:15.415Z,37.21
2023-05-22T13:02:55.841Z,35.03
2023-05-22T13:04:36.325Z,34.94
2023-05-22T13:06:16.644Z,34.42
2023-05-22T13:07:57.112Z,33.11
2023-05-22T13:09:37.585Z,34.97
2023-05-22T13:11:18.006Z,34.09
2023-05-22T13:12:58.458Z,33.67
2023-05-22T13:14:38.935Z,34.09
2023-05-22T13:16:19.444Z,29.98
2023-05-22T13:17:59.829Z,31.45
2023-05-22T13:19:40.229Z,31.57
2023-05-22T13:21:20.654Z,32.24
2023-05-22T13:23:01.151Z,29.95
2023-05-22T13:24:41.562Z,32.34
2023-05-22T13:26:21.969Z,30.94
2023-05-22T13:28:02.380Z,34.26
2023-05-22T13:29:42.785Z,31.94
2023-05-22T13:31:23.206Z,32.22
2023-05-22T13:33:03.726Z,33.62
2023-05-22T13:34:44.101Z,32.09
2023-05-22T13:36:24.568Z,34.43
2023-05-22T13:38:04.931Z,30.75
2023-05-22T13:39:45.393Z,31.47
2023-05-22T13:41:25.754Z,34.44
2023-05-22T13:43:06.261Z,32.11
2023-05-22T13:44:46.637Z,33.97
2023-05-22T13:46:27.088Z,35.11
2023-05-22T13:48:07.454Z,34.63
2023-05-22T13:49:47.870Z,33.64
2023-05-22T13:51:28.290Z,33.71
2023-05-22T13:53:08.639Z,35.69
2023-05-22T13:54:49.037Z,32.71
2023-05-22T13:56:29.528Z,35.14
2023-05-22T13:58:09.940Z,36.18
2023-05-22T13:59:50.392Z,36.71
2023-05-22T14:01:30.927Z,39.18
2023-05-22T14:03:11.378Z,39.11
2023-05-22T14:04:51.754Z,39
2023-05-22T14:06:32.102Z,39.93
2023-05-22T14:08:12.538Z,41.42
2023-05-22T14:09:52.973Z,40.39
2023-05-22T14:11:33.415Z,40.78
2023-05-22T14:13:13.826Z,40.13
2023-05-22T14:14:54.272Z,40.38
2023-05-22T14:16:34.721Z,41.46
2023-05-22T14:18:15.196Z,40.92
2023-05-22T14:19:55.666Z,42.11
2023-05-22T14:21:36.066Z,44.58
2023-05-22T14:23:16.517Z,45.2
2023-05-22T14:24:57.002Z,45.31
2023-05-22T14:26:37.456Z,44.38
2023-05-22T14:28:17.869Z,47.87
2023-05-22T14:29:58.361Z,48.05
2023-05-22T14:31:38.758Z,46.72
2023-05-22T14:33:19.164Z,46.1
2023-05-22T14:34:59.560Z,46.24
2023-05-22T14:36:39.923Z,42.93
2023-05-22T14:38:20.334Z,41.04
2023-05-22T14:40:00.784Z,40.12
2023-05-22T14:41:41.212Z,41.59
2023-05-22T14:43:21.590Z,42.67
2023-05-22T14:45:01.957Z,42.54
2023-05-22T14:46:42.601Z,44.16
2023-05-22T14:48:23.005Z,44.87
2023-05-22T14:50:18.092Z,43.77
2023-05-22T14:51:43.624Z,44.3
2023-05-22T14:53:24.059Z,45.19
2023-05-22T14:55:04.518Z,45.22
2023-05-22T14:56:44.919Z,41.75
2023-05-22T14:58:25.359Z,41.34
2023-05-22T15:00:09.051Z,40.53
2023-05-22T15:01:46.288Z,43.84
2023-05-22T15:03:26.703Z,44.59
2023-05-22T15:05:07.244Z,45.19
2023-05-22T15:06:47.442Z,45.63
2023-05-22T15:08:27.775Z,46.82
2023-05-22T15:10:08.171Z,46.63
2023-05-22T15:11:48.614Z,47.1
2023-05-22T15:13:29.012Z,47.94
2023-05-22T15:15:09.492Z,49.23
2023-05-22T15:16:49.883Z,49.84
2023-05-22T15:18:30.232Z,51.11
2023-05-22T15:20:10.654Z,52.01
2023-05-22T15:21:50.994Z,53.37
2023-05-22T15:23:31.345Z,54.73
2023-05-22T15:25:12.237Z,55.08
2023-05-22T15:26:52.095Z,55.43
2023-05-22T15:28:32.463Z,56.43
2023-05-22T15:30:12.890Z,56.93
2023-05-22T15:31:53.349Z,56.79
2023-05-22T15:33:33.746Z,57.33
2023-05-22T15:35:14.130Z,57.49
2023-05-22T15:36:54.627Z,58.12
2023-05-22T15:38:35.065Z,58.45
2023-05-22T15:40:15.536Z,58.64
2023-05-22T15:42:05.736Z,58.58
2023-05-22T15:43:36.328Z,58.72
2023-05-22T15:45:16.836Z,59.04
2023-05-22T15:46:57.285Z,58.85
2023-05-22T15:48:37.794Z,59.76
2023-05-22T15:50:18.190Z,59.07
2023-05-22T15:51:58.643Z,58.95
2023-05-22T15:53:39.072Z,58.06
2023-05-22T15:55:19.457Z,57.98
2023-05-22T15:56:59.776Z,57.93
2023-05-22T15:58:40.163Z,57.52
2023-05-22T16:00:20.542Z,57.63
2023-05-22T16:02:01.017Z,57.82
2023-05-22T16:03:41.631Z,58.42
2023-05-22T16:05:21.880Z,57.76
2023-05-22T16:07:02.270Z,57.62
2023-05-22T16:08:42.786Z,57.67
2023-05-22T16:10:23.205Z,57.05
2023-05-22T16:12:03.560Z,57
2023-05-22T16:13:43.971Z,57.37
2023-05-22T16:15:24.356Z,57.59
2023-05-22T16:17:04.817Z,57.19
2023-05-22T16:18:45.165Z,58.06
2023-05-22T16:20:25.597Z,56.55
2023-05-22T16:22:06.086Z,56.78
2023-05-22T16:23:46.494Z,57.02
2023-05-22T16:25:26.931Z,55.54
2023-05-22T16:27:07.389Z,56.08
2023-05-22T16:28:47.836Z,56.02
2023-05-22T16:30:28.284Z,55.79
2023-05-22T16:32:08.691Z,56.38
2023-05-22T16:33:49.144Z,56.6
2023-05-22T16:35:29.481Z,56.29
2023-05-22T16:37:09.950Z,56.58
2023-05-22T16:38:50.331Z,56.33
2023-05-22T16:40:30.727Z,56.15
2023-05-22T16:42:11.120Z,56.91
2023-05-22T16:43:51.618Z,57.16
2023-05-22T16:45:31.933Z,58.79
2023-05-22T16:47:12.426Z,60.27
2023-05-22T16:48:52.860Z,61.19
2023-05-22T16:50:33.316Z,61.93
2023-05-22T16:52:13.779Z,62.95
2023-05-22T16:53:54.205Z,64.12
2023-05-22T16:55:34.572Z,65.99
2023-05-22T16:57:14.973Z,66.67
2023-05-22T16:58:55.380Z,67.39
2023-05-22T17:00:35.792Z,67.87
2023-05-22T17:02:16.251Z,69.81
2023-05-22T17:03:56.664Z,71.39
2023-05-22T17:05:36.994Z,72.39
2023-05-22T17:07:17.392Z,72.54
2023-05-22T17:08:57.830Z,73.41
2023-05-22T17:10:38.126Z,74.54
2023-05-22T17:12:18.467Z,75.16
2023-05-22T17:13:58.928Z,75.87
2023-05-22T17:15:39.544Z,77.51
2023-05-22T17:17:19.803Z,77.38
2023-05-22T17:19:00.345Z,77.61
2023-05-22T17:20:40.698Z,77.53
2023-05-22T17:22:21.137Z,78.07
2023-05-22T17:24:01.596Z,78.16
2023-05-22T17:25:42.208Z,78
2023-05-22T17:27:35.024Z,78.32
2023-05-22T17:29:02.790Z,78.12
2023-05-22T17:30:43.427Z,77.25
2023-05-22T17:32:23.714Z,77.45
2023-05-22T17:34:04.113Z,77.01
2023-05-22T17:35:47.657Z,76.66
2023-05-22T17:37:25.026Z,76.76
2023-05-22T17:39:05.418Z,75.8
2023-05-22T17:40:46.467Z,76.33
2023-05-22T17:42:26.298Z,76.87
2023-05-22T17:44:06.755Z,77.07
2023-05-22T17:45:47.084Z,77.54
2023-05-22T17:47:27.497Z,77.17
2023-05-22T17:49:07.949Z,77.21
2023-05-22T17:50:48.353Z,77.51
2023-05-22T17:52:28.797Z,77.86
2023-05-22T17:54:09.302Z,77.62
2023-05-22T17:55:49.684Z,77.74
2023-05-22T17:57:30.065Z,77.83
2023-05-22T17:59:10.506Z,76.44
2023-05-22T18:00:50.992Z,76.53
2023-05-22T18:02:31.517Z,76.35
2023-05-22T18:04:11.907Z,76.59
2023-05-22T18:05:52.398Z,76.6
2023-05-22T18:07:32.851Z,77.03
2023-05-22T18:09:13.240Z,77.15
2023-05-22T18:10:53.675Z,77.19
2023-05-22T18:12:38.265Z,77.51
2023-05-22T18:14:14.564Z,77.49
2023-05-22T18:15:55.011Z,77.32
2023-05-22T18:17:35.540Z,77.57
2023-05-22T18:19:15.943Z,78.05
2023-05-22T18:20:56.313Z,78.22
2023-05-22T18:22:36.775Z,78.35
2023-05-22T18:24:17.192Z,78.05
2023-05-22T18:25:57.609Z,78.28
2023-05-22T18:27:38.042Z,78.52
2023-05-22T18:29:18.465Z,78.73
2023-05-22T18:30:58.864Z,79.29
2023-05-22T18:32:39.415Z,79.51
2023-05-22T18:34:19.938Z,79.8
2023-05-22T18:36:00.380Z,79.96
2023-05-22T18:37:40.828Z,80.09
2023-05-22T18:39:21.201Z,80.23
2023-05-22T18:41:01.610Z,80.8
2023-05-22T18:42:42.005Z,81.03
2023-05-22T18:44:22.366Z,81.31
2023-05-22T18:46:02.792Z,81.47
2023-05-22T18:47:43.213Z,81.54
2023-05-22T18:49:23.581Z,81.82
2023-05-22T18:51:04.002Z,82.17
2023-05-22T18:52:44.356Z,82.54
2023-05-22T18:54:24.810Z,82.77
2023-05-22T18:56:05.324Z,82.62
2023-05-22T18:57:45.786Z,82.6
2023-05-22T18:59:26.182Z,82.5
2023-05-22T19:01:09.662Z,82.54
2023-05-22T19:02:46.963Z,82.67
2023-05-22T19:04:27.485Z,82.4
2023-05-22T19:06:07.890Z,82.49
2023-05-22T19:07:48.266Z,82.52
2023-05-22T19:09:28.729Z,82.49
2023-05-22T19:11:09.169Z,82.38
2023-05-22T19:12:49.548Z,82.35
2023-05-22T19:14:29.939Z,82.58
2023-05-22T19:16:10.443Z,82.6
2023-05-22T19:17:50.931Z,82.61
2023-05-22T19:19:31.517Z,82.52
2023-05-22T19:21:11.746Z,82.61
2023-05-22T19:22:52.175Z,83.16
2023-05-22T19:24:32.523Z,83.52
2023-05-22T19:26:12.890Z,84.11
2023-05-22T19:27:53.309Z,84.41
2023-05-22T19:29:33.817Z,84.7
2023-05-22T19:31:14.353Z,85.5
2023-05-22T19:32:54.718Z,85.66
2023-05-22T19:34:35.182Z,85.28
2023-05-22T19:36:15.601Z,85.96
2023-05-22T19:37:56.040Z,86.52
2023-05-22T19:39:36.474Z,86.23
2023-05-22T19:41:16.874Z,85.24
2023-05-22T19:42:57.308Z,85.45
2023-05-22T19:44:37.642Z,85.36
2023-05-22T19:46:18.027Z,85.95
2023-05-22T19:47:58.511Z,85.79
2023-05-22T19:49:38.817Z,85.87
2023-05-22T19:51:19.253Z,85.87
2023-05-22T19:52:59.664Z,85.95
2023-05-22T19:54:40.116Z,86.1
2023-05-22T19:56:20.592Z,86.4
2023-05-22T19:58:00.930Z,86.27
2023-05-22T19:59:48.380Z,86.22
2023-05-22T20:01:21.746Z,86.53
2023-05-22T20:03:02.204Z,86.64
2023-05-22T20:04:42.436Z,86.39
2023-05-22T20:06:22.830Z,86.51
2023-05-22T20:08:03.250Z,86.31
2023-05-22T20:09:43.628Z,86.32
2023-05-22T20:11:24.008Z,86.46
2023-05-22T20:13:04.436Z,86.47
2023-05-22T20:14:44.792Z,87.19
2023-05-22T20:16:27.566Z,87.07
2023-05-22T20:18:05.584Z,87.04
2023-05-22T20:19:45.952Z,87.5
2023-05-22T20:21:26.382Z,87.86
2023-05-22T20:23:06.690Z,88.27
2023-05-22T20:24:47.096Z,88.11
2023-05-22T20:26:27.490Z,88.18
2023-05-22T20:28:07.891Z,88.19
2023-05-22T20:29:48.249Z,88.62
2023-05-22T20:31:28.597Z,88.24
2023-05-22T20:33:09.047Z,87.91
2023-05-22T20:34:49.405Z,88.35
2023-05-22T20:36:29.813Z,88.19
2023-05-22T20:38:10.228Z,88.31
2023-05-22T20:39:50.628Z,88.57
2023-05-22T20:41:30.968Z,88.55
2023-05-22T20:43:11.381Z,88.63
2023-05-22T20:44:51.818Z,89.7
2023-05-22T20:46:32.364Z,89.63
2023-05-22T20:48:12.761Z,89.68
2023-05-22T20:49:53.054Z,88.98
2023-05-22T20:51:33.554Z,89.78
2023-05-22T20:53:13.864Z,89.32
2023-05-22T20:54:54.297Z,90.01
2023-05-22T20:56:34.687Z,90.34
2023-05-22T20:58:15.018Z,90.63
2023-05-22T20:59:55.424Z,91.06
2023-05-22T21:01:35.981Z,91.28
2023-05-22T21:03:16.316Z,91.12
2023-05-22T21:04:56.722Z,91.22
2023-05-22T21:06:37.161Z,91.42
2023-05-22T21:08:17.547Z,91.76
2023-05-22T21:09:58.002Z,92.05
2023-05-22T21:11:38.378Z,92.46
2023-05-22T21:13:18.802Z,92.69
2023-05-22T21:14:59.123Z,92.78
2023-05-22T21:16:39.718Z,92.98
2023-05-22T21:18:19.874Z,93.02
2023-05-22T21:20:00.355Z,93.05
2023-05-22T21:21:40.783Z,93.13
2023-05-22T21:23:23.150Z,93.19
2023-05-22T21:25:01.666Z,93.25
2023-05-22T21:26:42.049Z,93.23
2023-05-22T21:28:22.409Z,93.26
2023-05-22T21:30:02.836Z,93.26
2023-05-22T21:31:43.320Z,93.35
2023-05-22T21:33:23.538Z,93.46
2023-05-22T21:35:03.925Z,93.39
2023-05-22T21:36:44.344Z,93.37
2023-05-22T21:38:24.730Z,93.36